Archiv-/Tagesdaten

--Timestamp---	Temp	Chill	HIndex	Humid	Dewpt	 Wind 	HiWind	WindDir	Rain 	Barom	Solar	 ET  	 UV 
--------------	----	-----	------	-----	-----	------	------	-------	-----	-----	-----	-----	----
20100830 00:00	11.3	11.3	11.3	84	8.7	0	3	292	0.0	1011.9	0	0.025	0.0
20100830 00:05	11.2	11.2	11.2	85	8.8	3	8	292	0.0	1012.2	0	0.000	0.0
20100830 00:10	11.2	11.2	11.2	85	8.7	3	6	292	0.0	1012.1	0	0.000	0.0
20100830 00:15	11.1	11.1	11.1	85	8.7	2	5	292	0.0	1012.0	0	0.000	0.0
20100830 00:20	11.1	11.1	11.1	85	8.6	0	3	292	0.0	1011.8	0	0.000	0.0
20100830 00:25	11.1	11.1	11.1	86	8.8	0	2	292	0.0	1011.8	0	0.000	0.0
20100830 00:30	11.1	11.1	11.1	86	8.8	0	2	292	0.0	1011.8	0	0.000	0.0
20100830 00:35	11.1	11.1	11.1	87	9.0	3	5	292	0.0	1011.8	0	0.000	0.0
20100830 00:40	11.1	11.1	11.1	87	9.0	3	6	292	0.0	1011.7	0	0.000	0.0
20100830 00:45	11.0	11.0	11.0	87	8.9	2	5	292	0.2	1011.7	0	0.000	0.0
20100830 00:50	11.0	11.0	11.0	87	8.9	2	6	292	0.0	1011.7	0	0.000	0.0
20100830 00:55	11.0	11.0	11.0	87	8.9	3	6	292	0.0	1011.6	0	0.000	0.0
20100830 01:00	11.1	11.1	11.1	88	9.1	3	6	225	0.2	1011.4	0	0.000	0.0
20100830 01:05	11.1	11.1	11.1	88	9.1	3	8	202	0.0	1011.1	0	0.000	0.0
20100830 01:10	11.1	11.1	11.1	88	9.1	3	8	202	0.0	1011.0	0	0.000	0.0
20100830 01:15	11.1	11.1	11.1	88	9.1	3	10	225	0.2	1010.9	0	0.000	0.0
20100830 01:20	11.1	11.1	11.1	89	9.3	6	16	202	0.0	1010.9	0	0.000	0.0
20100830 01:25	11.0	11.0	11.0	89	9.3	8	16	202	0.0	1010.8	0	0.000	0.0
20100830 01:30	10.9	10.9	10.9	89	9.2	8	14	202	0.0	1010.7	0	0.000	0.0
20100830 01:35	10.9	10.9	10.9	89	9.1	8	18	225	0.0	1010.8	0	0.000	0.0
20100830 01:40	10.9	10.9	10.9	89	9.1	8	14	225	0.2	1010.7	0	0.000	0.0
20100830 01:45	10.8	10.8	10.8	89	9.1	10	18	225	0.0	1010.7	0	0.000	0.0
20100830 01:50	10.8	10.8	10.8	88	8.9	11	19	248	0.0	1010.6	0	0.000	0.0
20100830 01:55	10.9	10.9	10.9	88	9.0	11	19	248	0.0	1010.6	0	0.000	0.0
20100830 02:00	10.9	10.9	10.9	87	8.9	11	19	248	0.0	1010.6	0	0.025	0.0
20100830 02:05	10.9	10.9	10.9	87	8.9	10	18	248	0.0	1010.4	0	0.000	0.0
20100830 02:10	10.9	10.9	10.9	88	9.0	8	16	248	0.0	1010.3	0	0.000	0.0
20100830 02:15	10.9	10.9	10.9	88	9.0	6	19	248	0.0	1010.2	0	0.000	0.0
20100830 02:20	10.8	10.8	10.8	86	8.5	14	27	248	0.2	1010.3	0	0.000	0.0
20100830 02:25	10.8	10.8	10.8	87	8.7	13	24	248	0.0	1010.3	0	0.000	0.0
20100830 02:30	10.7	10.7	10.7	87	8.6	11	19	270	0.0	1010.2	0	0.000	0.0
20100830 02:35	10.7	10.7	10.7	87	8.6	8	19	248	0.0	1010.1	0	0.000	0.0
20100830 02:40	10.6	10.6	10.6	87	8.5	6	14	248	0.0	1010.1	0	0.000	0.0
20100830 02:45	10.6	10.6	10.6	88	8.7	6	11	248	0.0	1010.0	0	0.000	0.0
20100830 02:50	10.6	10.6	10.6	89	8.8	6	10	248	0.2	1010.0	0	0.000	0.0
20100830 02:55	10.6	10.6	10.6	89	8.8	6	10	248	0.0	1010.0	0	0.000	0.0
20100830 03:00	10.6	10.6	10.6	89	8.9	8	21	248	0.0	1010.0	0	0.025	0.0
20100830 03:05	10.6	10.6	10.6	89	8.9	10	18	248	0.0	1010.1	0	0.000	0.0
20100830 03:10	10.7	10.7	10.7	89	8.9	11	23	248	0.2	1009.9	0	0.000	0.0
20100830 03:15	10.7	10.7	10.7	88	8.8	11	23	248	0.0	1009.8	0	0.000	0.0
20100830 03:20	10.6	10.6	10.6	88	8.7	11	23	248	0.0	1009.6	0	0.000	0.0
20100830 03:25	10.6	10.6	10.6	88	8.7	11	21	248	0.0	1009.6	0	0.000	0.0
20100830 03:30	10.6	10.6	10.6	88	8.7	11	21	248	0.0	1009.5	0	0.000	0.0
20100830 03:35	10.6	10.6	10.6	88	8.7	10	19	248	0.2	1009.5	0	0.000	0.0
20100830 03:40	10.6	10.6	10.6	88	8.7	13	21	248	0.0	1009.3	0	0.000	0.0
20100830 03:45	10.5	10.5	10.5	88	8.6	11	23	248	0.0	1009.2	0	0.000	0.0
20100830 03:50	10.5	10.5	10.5	88	8.6	14	24	248	0.0	1009.0	0	0.000	0.0
20100830 03:55	10.5	10.5	10.5	88	8.6	10	21	248	0.0	1009.0	0	0.000	0.0
20100830 04:00	10.5	10.5	10.5	88	8.6	10	18	225	0.0	1008.8	0	0.025	0.0
20100830 04:05	10.4	10.4	10.4	88	8.5	10	18	225	0.0	1008.8	0	0.000	0.0
20100830 04:10	10.4	10.4	10.4	88	8.5	8	18	248	0.2	1008.9	0	0.000	0.0
20100830 04:15	10.4	10.4	10.4	89	8.7	6	16	248	0.2	1008.8	0	0.000	0.0
20100830 04:20	10.4	10.4	10.4	89	8.7	8	14	292	0.4	1009.1	0	0.000	0.0
20100830 04:25	10.4	10.4	10.4	89	8.7	8	18	292	0.2	1008.9	0	0.000	0.0
20100830 04:30	10.3	10.3	10.3	88	8.4	19	53	270	0.2	1009.1	0	0.000	0.0
20100830 04:35	10.3	10.3	10.3	87	8.3	24	40	248	0.2	1009.0	0	0.000	0.0
20100830 04:40	10.3	10.3	10.3	86	8.0	23	39	270	0.2	1009.0	0	0.000	0.0
20100830 04:45	10.1	10.1	10.1	86	7.9	21	37	270	0.0	1009.0	0	0.000	0.0
20100830 04:50	9.9	7.4	9.9	86	7.7	19	40	270	0.2	1009.0	0	0.000	0.0
20100830 04:55	9.8	7.5	9.8	87	7.7	16	29	270	0.0	1009.0	0	0.000	0.0
20100830 05:00	9.7	7.2	9.7	87	7.6	18	31	248	0.2	1009.0	0	0.025	0.0
20100830 05:05	9.6	7.3	9.6	87	7.6	16	32	270	0.0	1009.0	0	0.000	0.0
20100830 05:10	9.6	7.1	9.6	87	7.5	18	35	270	0.2	1008.8	0	0.000	0.0
20100830 05:15	9.4	6.9	9.4	87	7.4	18	29	270	0.0	1008.9	0	0.000	0.0
20100830 05:20	9.4	7.1	9.4	88	7.6	16	32	270	0.2	1008.9	0	0.000	0.0
20100830 05:25	9.4	7.5	9.4	88	7.6	13	27	270	0.0	1008.9	0	0.000	0.0
20100830 05:30	9.3	6.6	9.3	88	7.4	19	34	270	0.0	1008.8	0	0.000	0.0
20100830 05:35	9.4	7.5	9.4	88	7.5	13	23	248	0.0	1008.9	0	0.000	0.0
20100830 05:40	9.4	6.9	9.4	88	7.5	18	29	270	0.2	1008.9	0	0.000	0.0
20100830 05:45	9.4	6.9	9.4	88	7.5	18	27	270	0.0	1008.8	0	0.000	0.0
20100830 05:50	9.4	7.0	9.4	88	7.5	16	27	270	0.0	1008.8	0	0.000	0.0
20100830 05:55	9.3	7.0	9.3	88	7.4	16	26	270	0.0	1008.6	0	0.000	0.0
20100830 06:00	9.3	7.2	9.3	87	7.3	14	24	248	0.0	1008.6	0	0.025	0.0
20100830 06:05	9.3	7.1	9.3	87	7.2	14	24	270	0.0	1008.9	0	0.000	0.0
20100830 06:10	9.2	6.4	9.2	86	6.9	19	27	270	0.0	1009.0	0	0.000	0.0
20100830 06:15	9.1	6.6	9.1	85	6.7	16	27	270	0.0	1009.4	0	0.000	0.0
20100830 06:20	9.0	7.0	9.0	85	6.6	13	24	270	0.0	1009.5	0	0.000	0.0
20100830 06:25	8.8	6.8	8.8	85	6.5	13	21	270	0.0	1009.6	0	0.000	0.0
20100830 06:30	8.8	6.3	8.8	85	6.4	16	26	270	0.0	1009.7	0	0.000	0.0
20100830 06:35	8.8	6.7	8.8	85	6.4	13	24	270	0.0	1009.7	0	0.000	0.0
20100830 06:40	8.7	6.9	8.7	85	6.3	11	23	270	0.0	1009.6	0	0.000	0.0
20100830 06:45	8.7	6.6	8.7	85	6.3	13	23	270	0.0	1009.7	0	0.000	0.0
20100830 06:50	8.7	6.9	8.7	85	6.3	11	21	270	0.0	1009.8	0	0.000	0.0
20100830 06:55	8.7	7.2	8.7	85	6.3	10	19	270	0.0	1009.7	1	0.000	0.0
20100830 07:00	8.7	6.6	8.7	85	6.3	13	21	248	0.0	1009.8	6	0.025	0.0
20100830 07:05	8.7	7.2	8.7	85	6.3	10	18	270	0.0	1010.0	19	0.000	0.0
20100830 07:10	8.7	7.2	8.7	85	6.3	10	19	270	0.0	1010.1	20	0.000	0.0
20100830 07:15	8.7	7.2	8.7	85	6.3	10	21	248	0.0	1010.1	23	0.000	0.0
20100830 07:20	8.7	7.9	8.7	86	6.5	6	16	270	0.0	1010.0	27	0.000	0.0
20100830 07:25	8.7	7.5	8.7	85	6.3	8	18	248	0.0	1010.0	27	0.000	0.0
20100830 07:30	8.8	6.7	8.8	85	6.4	13	23	225	0.0	1010.0	24	0.000	0.0
20100830 07:35	8.8	7.6	8.8	85	6.4	8	14	248	0.0	1009.9	28	0.000	0.0
20100830 07:40	8.8	7.2	8.8	86	6.6	10	18	248	0.0	1009.9	42	0.000	0.0
20100830 07:45	8.7	6.6	8.7	86	6.5	13	21	248	0.0	1010.0	43	0.000	0.0
20100830 07:50	8.7	6.6	8.7	86	6.5	13	23	248	0.0	1010.0	37	0.000	0.0
20100830 07:55	8.8	7.0	8.8	86	6.6	11	23	248	0.0	1010.1	20	0.000	0.0
20100830 08:00	8.8	7.3	8.8	86	6.6	10	18	270	0.0	1010.2	56	0.025	0.0
20100830 08:05	8.9	6.2	8.9	85	6.5	18	40	248	0.0	1010.3	82	0.000	0.0
20100830 08:10	9.0	6.4	9.0	83	6.3	18	31	270	0.0	1010.3	65	0.000	0.0
20100830 08:15	9.1	6.5	9.1	82	6.2	18	32	248	0.0	1010.3	30	0.000	0.0
20100830 08:20	9.2	6.8	9.2	82	6.3	16	31	248	0.0	1010.4	23	0.000	0.0
20100830 08:25	9.2	6.6	9.2	81	6.1	18	34	270	0.0	1010.4	86	0.000	0.0
20100830 08:30	9.3	6.4	9.3	80	6.0	21	34	248	0.0	1010.5	147	0.000	0.1
20100830 08:35	9.4	6.5	9.4	79	5.9	21	37	270	0.0	1010.5	94	0.000	0.0
20100830 08:40	9.4	6.6	9.4	78	5.8	21	35	270	0.0	1010.5	92	0.000	0.0
20100830 08:45	9.5	6.7	9.5	78	5.9	21	34	270	0.0	1010.5	53	0.000	0.0
20100830 08:50	9.4	6.6	9.4	77	5.6	21	31	248	0.0	1010.5	43	0.000	0.0
20100830 08:55	9.4	6.8	9.4	79	6.0	19	32	248	0.0	1010.4	34	0.000	0.0
20100830 09:00	9.4	6.9	9.4	79	5.9	18	32	248	0.0	1010.4	44	0.076	0.0
20100830 09:05	9.3	6.6	9.3	79	5.9	19	37	270	0.0	1010.5	59	0.000	0.0
20100830 09:10	9.3	7.0	9.3	79	5.9	16	31	248	0.0	1010.6	55	0.000	0.0
20100830 09:15	9.3	6.8	9.3	79	5.9	18	34	248	0.0	1010.5	83	0.000	0.1
20100830 09:20	9.4	6.4	9.4	79	5.9	23	37	248	0.0	1010.4	96	0.000	0.3
20100830 09:25	9.4	6.9	9.4	79	6.0	18	32	270	0.0	1010.4	103	0.000	0.5
20100830 09:30	9.5	7.2	9.5	79	6.0	16	32	270	0.0	1010.4	105	0.000	0.4
20100830 09:35	9.6	6.6	9.6	76	5.5	23	40	248	0.0	1010.4	128	0.000	0.6
20100830 09:40	9.7	7.1	9.7	77	5.9	19	32	270	0.0	1010.3	135	0.000	0.7
20100830 09:45	9.8	6.9	9.8	76	5.8	23	35	270	0.0	1010.3	149	0.000	0.8
20100830 09:50	9.9	7.4	9.9	76	5.9	19	35	270	0.0	1010.3	153	0.000	0.8
20100830 09:55	10.0	10.0	10.0	73	5.4	26	45	270	0.0	1010.1	135	0.000	0.8
20100830 10:00	10.1	10.1	10.1	73	5.4	24	47	270	0.0	1010.4	136	0.102	0.8
20100830 10:05	10.2	10.2	10.2	73	5.5	24	47	270	0.0	1010.3	139	0.000	0.9
20100830 10:10	10.2	10.2	10.2	72	5.3	24	40	270	0.0	1010.5	117	0.000	0.7
20100830 10:15	10.2	10.2	10.2	72	5.4	27	43	270	0.0	1010.3	108	0.000	0.7
20100830 10:20	10.2	10.2	10.2	72	5.4	23	45	248	0.0	1010.5	115	0.000	0.7
20100830 10:25	10.3	10.3	10.3	72	5.5	23	43	270	0.0	1010.3	223	0.000	1.3
20100830 10:30	10.5	10.5	10.5	71	5.5	24	40	270	0.0	1010.3	246	0.000	1.7
20100830 10:35	10.7	10.7	10.7	70	5.5	24	47	248	0.0	1010.3	279	0.000	1.7
20100830 10:40	10.8	10.8	10.8	68	5.2	27	45	270	0.0	1010.2	308	0.000	1.9
20100830 10:45	11.1	11.1	11.1	68	5.4	23	43	270	0.0	1010.2	260	0.000	1.8
20100830 10:50	11.2	11.2	11.2	68	5.5	23	51	270	0.0	1010.1	289	0.000	2.0
20100830 10:55	11.3	11.3	11.3	68	5.6	27	40	248	0.0	1010.0	407	0.000	2.7
20100830 11:00	11.7	11.7	11.7	67	5.7	24	45	270	0.0	1009.8	468	0.203	3.2
20100830 11:05	12.0	12.0	12.0	66	5.8	29	45	248	0.0	1009.9	348	0.000	2.7
20100830 11:10	12.1	12.1	12.1	64	5.5	31	53	248	0.0	1009.8	442	0.000	2.7
20100830 11:15	12.0	12.0	12.0	63	5.2	34	55	270	0.0	1009.9	338	0.000	2.3
20100830 11:20	11.8	11.8	11.8	62	4.8	35	56	248	0.0	1010.3	331	0.000	2.6
20100830 11:25	11.8	11.8	11.8	63	5.0	34	55	270	0.0	1010.0	705	0.000	4.0
20100830 11:30	12.2	12.2	12.2	65	5.8	29	48	270	0.0	1009.8	743	0.000	4.1
20100830 11:35	12.3	12.3	12.3	62	5.3	26	51	270	0.0	1009.6	332	0.000	3.0
20100830 11:40	12.4	12.4	12.4	62	5.3	27	48	270	0.0	1009.7	264	0.000	3.4
20100830 11:45	12.6	12.6	12.6	63	5.8	29	47	270	0.0	1009.7	629	0.000	3.8
20100830 11:50	12.8	12.8	12.8	63	6.0	24	42	270	0.0	1009.7	445	0.000	3.4
20100830 11:55	12.8	12.8	12.8	62	5.7	27	48	270	0.0	1009.8	379	0.000	2.9
20100830 12:00	12.7	12.7	12.7	60	5.1	31	53	270	0.0	1009.9	194	0.330	1.7
20100830 12:05	12.3	12.3	12.3	64	5.7	29	50	270	0.0	1010.0	218	0.000	1.7
20100830 12:10	12.1	12.1	12.1	64	5.5	29	51	270	0.0	1009.9	206	0.000	1.7
20100830 12:15	11.8	11.8	11.8	66	5.7	31	50	270	0.0	1010.0	192	0.000	1.7
20100830 12:20	11.6	11.6	11.6	67	5.7	26	48	270	0.0	1010.1	110	0.000	1.0
20100830 12:25	11.4	11.4	11.4	67	5.5	29	50	270	0.0	1010.1	69	0.000	0.6
20100830 12:30	11.2	11.2	11.2	69	5.7	29	45	270	0.0	1010.2	97	0.000	0.8
20100830 12:35	10.9	10.9	10.9	73	6.2	26	39	270	0.0	1010.3	140	0.000	1.2
20100830 12:40	10.6	10.6	10.6	75	6.4	23	39	270	0.0	1010.5	127	0.000	1.1
20100830 12:45	10.3	10.3	10.3	77	6.5	24	43	270	0.0	1010.7	93	0.000	0.8
20100830 12:50	10.0	10.0	10.0	79	6.5	31	58	270	0.2	1010.7	94	0.000	0.8
20100830 12:55	9.7	6.5	9.7	81	6.6	26	40	270	0.2	1010.7	145	0.000	1.2
20100830 13:00	9.6	6.5	9.6	81	6.5	24	51	270	0.0	1010.9	197	0.152	1.6
20100830 13:05	9.5	6.4	9.5	84	6.9	24	39	270	0.2	1010.8	247	0.000	2.1
20100830 13:10	9.6	6.6	9.6	84	7.0	23	37	270	0.0	1010.8	192	0.000	1.7
20100830 13:15	9.6	6.8	9.6	84	7.0	21	42	270	0.0	1010.8	201	0.000	1.8
20100830 13:20	9.7	6.7	9.7	83	6.9	23	40	270	0.0	1010.7	179	0.000	1.4
20100830 13:25	9.7	6.6	9.7	82	6.7	24	40	270	0.0	1010.8	166	0.000	1.3
20100830 13:30	9.7	7.0	9.7	83	7.0	21	42	270	0.0	1010.8	217	0.000	1.7
20100830 13:35	9.8	6.9	9.8	83	7.1	23	39	270	0.0	1010.6	340	0.000	2.8
20100830 13:40	10.2	10.2	10.2	84	7.6	19	31	270	0.0	1010.7	463	0.000	3.4
20100830 13:45	10.4	10.4	10.4	82	7.5	21	34	270	0.0	1010.7	293	0.000	2.4
20100830 13:50	10.5	10.5	10.5	80	7.2	24	42	270	0.0	1010.6	400	0.000	2.9
20100830 13:55	10.7	10.7	10.7	80	7.4	21	47	270	0.2	1010.6	370	0.000	2.7
20100830 14:00	10.7	10.7	10.7	78	7.0	29	50	270	0.0	1010.6	328	0.178	2.5
20100830 14:05	10.9	10.9	10.9	79	7.4	21	37	270	0.0	1010.5	303	0.000	2.3
20100830 14:10	11.0	11.0	11.0	78	7.3	26	48	270	0.0	1010.7	216	0.000	1.6
20100830 14:15	10.9	10.9	10.9	76	6.8	29	53	270	0.0	1010.7	166	0.000	1.2
20100830 14:20	10.8	10.8	10.8	77	6.9	29	53	248	0.0	1010.7	121	0.000	0.9
20100830 14:25	10.7	10.7	10.7	75	6.4	31	48	270	0.0	1010.9	166	0.000	1.2
20100830 14:30	10.5	10.5	10.5	72	5.7	37	58	270	0.0	1010.9	243	0.000	1.6
20100830 14:35	10.2	10.2	10.2	74	5.8	31	53	270	0.0	1010.9	159	0.000	1.1
20100830 14:40	9.9	6.3	9.9	76	5.9	32	48	270	0.0	1011.1	203	0.000	1.4
20100830 14:45	9.7	6.4	9.7	79	6.3	27	51	270	0.0	1011.1	245	0.000	1.8
20100830 14:50	9.8	6.6	9.8	79	6.3	26	53	270	0.0	1011.1	292	0.000	2.3
20100830 14:55	10.1	10.1	10.1	79	6.6	26	45	270	0.0	1011.2	368	0.000	2.8
20100830 15:00	10.5	10.5	10.5	78	6.8	27	45	270	0.0	1011.1	479	0.203	2.8
20100830 15:05	10.8	10.8	10.8	76	6.8	26	48	270	0.0	1011.1	474	0.000	2.9
20100830 15:10	11.2	11.2	11.2	75	6.9	23	40	270	0.0	1010.8	453	0.000	2.8
20100830 15:15	11.2	11.2	11.2	72	6.3	31	58	248	0.0	1010.8	451	0.000	2.6
20100830 15:20	11.1	11.1	11.1	72	6.3	32	53	270	0.0	1011.0	389	0.000	2.4
20100830 15:25	11.1	11.1	11.1	74	6.6	24	42	270	0.0	1011.0	231	0.000	1.8
20100830 15:30	10.9	10.9	10.9	73	6.2	31	51	270	0.0	1010.9	209	0.000	1.4
20100830 15:35	10.7	10.7	10.7	76	6.6	23	40	270	0.0	1010.7	163	0.000	1.1
20100830 15:40	10.5	10.5	10.5	77	6.6	24	43	270	0.0	1010.6	159	0.000	1.0
20100830 15:45	10.5	10.5	10.5	78	6.8	21	37	270	0.0	1010.5	202	0.000	1.2
20100830 15:50	10.7	10.7	10.7	77	6.8	24	47	270	0.0	1010.5	207	0.000	1.1
20100830 15:55	10.9	10.9	10.9	74	6.5	29	51	270	0.0	1010.5	202	0.000	1.0
20100830 16:00	10.9	10.9	10.9	78	7.2	27	47	292	0.0	1010.5	154	0.203	0.9
20100830 16:05	10.7	10.7	10.7	77	6.8	32	60	270	0.0	1010.5	125	0.000	0.8
20100830 16:10	10.6	10.6	10.6	79	7.1	29	51	270	0.0	1010.9	163	0.000	1.1
20100830 16:15	10.2	10.2	10.2	81	7.1	27	51	270	0.2	1010.8	143	0.000	1.0
20100830 16:20	10.1	10.1	10.1	82	7.2	26	51	270	0.0	1011.0	148	0.000	1.2
20100830 16:25	10.2	10.2	10.2	80	6.9	27	47	270	0.0	1010.9	151	0.000	1.1
20100830 16:30	10.3	10.3	10.3	80	7.0	26	47	270	0.0	1011.1	176	0.000	1.1
20100830 16:35	10.3	10.3	10.3	78	6.6	27	47	270	0.0	1011.0	101	0.000	0.5
20100830 16:40	10.2	10.2	10.2	79	6.7	29	48	270	0.0	1011.1	115	0.000	0.6
20100830 16:45	10.3	10.3	10.3	79	6.8	31	48	270	0.0	1011.0	212	0.000	1.1
20100830 16:50	10.3	10.3	10.3	80	7.0	24	50	270	0.0	1010.9	162	0.000	1.0
20100830 16:55	10.3	10.3	10.3	79	6.8	24	39	270	0.0	1011.0	57	0.000	0.2
20100830 17:00	10.1	10.1	10.1	81	7.0	26	48	270	0.0	1011.1	36	0.127	0.0
20100830 17:05	9.8	7.4	9.8	83	7.1	18	37	270	0.2	1010.9	24	0.000	0.0
20100830 17:10	9.7	6.8	9.7	82	6.8	23	37	292	0.0	1011.1	25	0.000	0.0
20100830 17:15	9.7	7.0	9.7	84	7.1	19	35	270	0.0	1011.1	70	0.000	0.0
20100830 17:20	9.8	7.0	9.8	84	7.2	21	35	270	0.0	1011.1	130	0.000	0.5
20100830 17:25	10.0	10.0	10.0	83	7.2	23	37	270	0.0	1011.1	116	0.000	0.4
20100830 17:30	10.1	10.1	10.1	82	7.2	19	37	270	0.0	1011.2	68	0.000	0.1
20100830 17:35	10.1	10.1	10.1	81	7.0	24	40	270	0.0	1011.1	56	0.000	0.0
20100830 17:40	10.1	10.1	10.1	83	7.4	18	31	270	0.0	1011.2	54	0.000	0.0
20100830 17:45	10.0	10.0	10.0	83	7.2	23	35	270	0.0	1011.3	50	0.000	0.0
20100830 17:50	9.9	7.4	9.9	83	7.2	19	32	270	0.0	1011.2	38	0.000	0.0
20100830 17:55	9.9	7.2	9.9	84	7.3	21	34	292	0.2	1011.1	28	0.000	0.0
20100830 18:00	9.8	7.6	9.8	84	7.3	16	31	270	0.0	1010.9	27	0.051	0.0
20100830 18:05	9.8	7.4	9.8	84	7.3	18	35	270	0.0	1011.1	29	0.000	0.0
20100830 18:10	9.9	6.6	9.9	83	7.1	27	50	270	0.0	1011.2	71	0.000	0.0
20100830 18:15	9.9	7.0	9.9	84	7.4	24	43	270	0.0	1011.3	84	0.000	0.0
20100830 18:20	9.7	6.5	9.7	79	6.3	26	43	315	0.0	1011.9	16	0.000	0.0
20100830 18:25	9.1	5.8	9.1	79	5.6	24	35	315	0.6	1012.1	12	0.000	0.0
20100830 18:30	8.4	5.8	8.4	82	5.5	16	27	315	0.2	1012.2	27	0.000	0.0
20100830 18:35	8.1	5.6	8.1	84	5.5	14	24	315	0.0	1012.3	24	0.000	0.0
20100830 18:40	7.9	5.6	7.9	85	5.5	13	21	315	0.0	1012.2	10	0.000	0.0
20100830 18:45	7.8	6.1	7.8	86	5.6	10	19	292	0.6	1012.2	7	0.000	0.0
20100830 18:50	7.7	5.4	7.7	86	5.5	13	23	315	0.6	1012.2	7	0.000	0.0
20100830 18:55	7.7	5.9	7.7	87	5.6	10	16	292	0.6	1012.1	9	0.000	0.0
20100830 19:00	7.7	6.3	7.7	88	5.8	8	14	292	0.0	1012.3	3	0.051	0.0
20100830 19:05	7.7	6.3	7.7	89	6.0	8	21	292	0.2	1012.2	4	0.000	0.0
20100830 19:10	7.7	6.7	7.7	89	6.0	6	14	292	0.2	1012.1	5	0.000	0.0
20100830 19:15	7.8	6.9	7.8	90	6.3	6	18	315	0.0	1012.2	0	0.000	0.0
20100830 19:20	8.0	7.1	8.0	90	6.5	6	10	270	0.0	1012.2	9	0.000	0.0
20100830 19:25	8.1	5.9	8.1	90	6.6	13	27	270	0.0	1012.3	10	0.000	0.0
20100830 19:30	8.4	6.1	8.4	90	6.9	14	29	270	0.0	1012.3	6	0.000	0.0
20100830 19:35	8.7	6.4	8.7	90	7.1	14	27	270	0.0	1012.2	0	0.000	0.0
20100830 19:40	8.8	6.6	8.8	89	7.1	14	27	270	0.2	1012.2	0	0.000	0.0
20100830 19:45	8.9	6.5	8.9	89	7.2	16	27	270	0.0	1012.3	0	0.000	0.0
20100830 19:50	8.9	6.5	8.9	89	7.2	16	26	270	0.0	1012.3	0	0.000	0.0
20100830 19:55	8.9	6.7	8.9	89	7.2	14	26	270	0.2	1012.4	0	0.000	0.0
20100830 20:00	8.9	6.7	8.9	89	7.2	14	27	270	0.0	1012.4	0	0.025	0.0
20100830 20:05	8.9	6.9	8.9	89	7.2	13	27	270	0.0	1012.4	0	0.000	0.0
20100830 20:10	8.9	7.7	8.9	89	7.2	8	18	292	0.2	1012.3	0	0.000	0.0
20100830 20:15	8.9	7.4	8.9	90	7.3	10	21	270	0.0	1012.3	0	0.000	0.0
20100830 20:20	8.9	7.2	8.9	90	7.4	11	24	270	0.2	1012.4	0	0.000	0.0
20100830 20:25	8.9	7.2	8.9	90	7.4	11	26	270	0.4	1012.4	0	0.000	0.0
20100830 20:30	8.9	6.4	8.9	90	7.3	16	27	292	0.0	1012.4	0	0.000	0.0
20100830 20:35	8.9	6.4	8.9	90	7.3	16	31	270	0.2	1012.4	0	0.000	0.0
20100830 20:40	8.8	6.4	8.8	90	7.3	16	24	270	0.2	1012.4	0	0.000	0.0
20100830 20:45	8.8	7.0	8.8	90	7.3	11	19	270	0.0	1012.5	0	0.000	0.0
20100830 20:50	8.8	7.0	8.8	90	7.3	11	19	270	0.0	1012.5	0	0.000	0.0
20100830 20:55	8.8	7.2	8.8	91	7.4	10	21	292	0.2	1012.6	0	0.000	0.0
20100830 21:00	8.8	7.2	8.8	91	7.4	10	18	292	0.0	1012.6	0	0.025	0.0
20100830 21:05	8.8	8.0	8.8	91	7.4	6	14	292	0.2	1012.5	0	0.000	0.0
20100830 21:10	8.8	7.6	8.8	91	7.4	8	14	292	0.2	1012.5	0	0.000	0.0
20100830 21:15	8.8	7.6	8.8	91	7.4	8	14	315	0.2	1012.6	0	0.000	0.0
20100830 21:20	8.8	8.0	8.8	91	7.4	6	10	315	0.2	1012.5	0	0.000	0.0
20100830 21:25	8.8	8.0	8.8	91	7.4	6	11	292	0.0	1012.5	0	0.000	0.0
20100830 21:30	8.7	7.9	8.7	91	7.3	6	14	315	0.2	1012.4	0	0.000	0.0
20100830 21:35	8.7	8.7	8.7	91	7.3	5	10	315	0.0	1012.4	0	0.000	0.0
20100830 21:40	8.6	8.6	8.6	91	7.2	5	10	315	0.2	1012.3	0	0.000	0.0
20100830 21:45	8.6	8.6	8.6	91	7.2	5	8	315	0.0	1012.3	0	0.000	0.0
20100830 21:50	8.6	8.6	8.6	91	7.2	2	5	315	0.2	1012.3	0	0.000	0.0
20100830 21:55	8.6	8.6	8.6	91	7.2	5	16	315	0.2	1012.3	0	0.000	0.0
20100830 22:00	8.6	8.6	8.6	91	7.2	0	5	0	0.2	1012.4	0	0.000	0.0
20100830 22:05	8.6	8.6	8.6	91	7.2	2	11	22	0.2	1012.2	0	0.000	0.0
20100830 22:10	8.4	8.4	8.4	91	7.1	5	11	315	0.0	1012.2	0	0.000	0.0
20100830 22:15	8.3	8.3	8.3	91	6.9	5	14	315	0.0	1012.2	0	0.000	0.0
20100830 22:20	8.2	8.2	8.2	91	6.8	5	11	315	0.0	1012.3	0	0.000	0.0
20100830 22:25	8.1	8.1	8.1	91	6.7	5	16	315	0.0	1012.3	0	0.000	0.0
20100830 22:30	8.0	8.0	8.0	91	6.6	5	16	315	0.0	1012.4	0	0.000	0.0
20100830 22:35	7.9	7.9	7.9	91	6.6	5	11	315	0.0	1012.5	0	0.000	0.0
20100830 22:40	7.9	7.9	7.9	91	6.6	3	10	292	0.0	1012.5	0	0.000	0.0
20100830 22:45	7.9	7.9	7.9	91	6.6	3	8	315	0.0	1012.5	0	0.000	0.0
20100830 22:50	7.9	7.9	7.9	91	6.6	2	8	292	0.0	1012.6	0	0.000	0.0
20100830 22:55	7.9	7.9	7.9	91	6.5	2	8	292	0.0	1012.6	0	0.000	0.0
20100830 23:00	7.9	7.9	7.9	91	6.5	3	6	315	0.2	1012.7	0	0.000	0.0
20100830 23:05	7.9	7.9	7.9	91	6.6	2	6	315	0.0	1012.6	0	0.000	0.0
20100830 23:10	7.9	7.9	7.9	91	6.6	3	14	315	0.0	1012.7	0	0.000	0.0
20100830 23:15	7.9	7.0	7.9	91	6.6	6	16	315	0.0	1012.7	0	0.000	0.0
20100830 23:20	8.0	8.0	8.0	91	6.6	3	8	315	0.0	1012.8	0	0.000	0.0
20100830 23:25	8.1	7.1	8.1	92	6.8	6	18	292	0.0	1012.7	0	0.000	0.0
20100830 23:30	8.1	8.1	8.1	91	6.7	3	16	292	0.0	1012.8	0	0.000	0.0
20100830 23:35	8.2	8.2	8.2	92	6.9	2	14	315	0.0	1012.8	0	0.000	0.0
20100830 23:40	8.2	8.2	8.2	92	7.0	3	10	315	0.0	1012.9	0	0.000	0.0
20100830 23:45	8.2	8.2	8.2	92	6.9	5	14	292	0.0	1012.9	0	0.000	0.0
20100830 23:50	8.2	6.9	8.2	91	6.8	8	21	292	0.0	1013.0	0	0.000	0.0
20100830 23:55	8.1	8.1	8.1	91	6.7	5	14	315	0.0	1013.0	0	0.000	0.0
--------------------------------------------------------------------------------------------------------------------
Please note the license to use and transfer of this data:
http://creativecommons.org/licenses/by-nc-sa/3.0/deed.en

Bitte beachten sie die Lizenz zur Verwertung und Weitergabe der Daten:
http://creativecommons.org/licenses/by-nc-sa/3.0/deed.de



Please note the license to use and transfer of this data:
http://creativecommons.org/licenses/by-nc-sa/3.0/deed.en

Bitte beachten sie die Lizenz zur Verwertung und Weitergabe der Daten:
http://creativecommons.org/licenses/by-nc-sa/3.0/deed.de

zurück zur Übersicht der Archivdaten (Monats und Tagesdaten)

Cookies helfen bei der Bereitstellung von Inhalten. Durch die Nutzung dieser Seiten erklärst du dich damit einverstanden, dass Cookies auf deinem Rechner gespeichert werden. Weitere Information